Time;durP1;ratioP1;P1;durP2;ratioP2;P2;SDS_P1;SDS_P2;PMS_P1;PMS_P2;Temp;Humidity;BMP_temperature;BMP_pressure;BME280_temperature;BME280_humidity;BME280_pressure;Samples;Min_cycle;Max_cycle;Signal;HPM_P1;HPM_P2
2022/03/16 00:02:22;;;;;;;18.90;7.53;;;8.20;99.90;;;;;;4973840;28;20491;-78
2022/03/16 00:04:51;;;;;;;12.63;7.03;;;8.20;99.90;;;;;;4991944;28;20157;-78
2022/03/16 00:07:17;;;;;;;22.30;7.80;;;8.20;99.90;;;;;;4991358;28;20023;-78
2022/03/16 00:09:44;;;;;;;15.23;7.83;;;8.20;99.90;;;;;;4974196;28;20030;-78
2022/03/16 00:12:10;;;;;;;16.33;8.40;;;8.10;99.90;;;;;;4991199;28;20490;-78
2022/03/16 00:14:37;;;;;;;19.17;8.57;;;8.10;99.90;;;;;;4973841;28;20136;-78
2022/03/16 00:17:03;;;;;;;14.10;8.67;;;8.00;99.90;;;;;;4973485;28;20386;-78
2022/03/16 00:19:29;;;;;;;18.60;8.47;;;8.00;99.90;;;;;;4991132;28;20022;-78
2022/03/16 00:21:56;;;;;;;15.93;8.00;;;8.00;99.90;;;;;;4991602;28;20068;-78
2022/03/16 00:24:22;;;;;;;19.57;8.33;;;8.00;99.90;;;;;;4991726;28;20034;-78
2022/03/16 00:26:47;;;;;;;18.77;8.43;;;8.00;99.90;;;;;;4991592;28;20797;-78
2022/03/16 00:29:13;;;;;;;15.63;8.03;;;8.00;99.90;;;;;;4991759;28;20019;-78
2022/03/16 00:31:38;;;;;;;15.83;8.57;;;7.90;99.90;;;;;;4991518;28;20034;-78
2022/03/16 00:34:04;;;;;;;20.23;9.17;;;7.90;99.90;;;;;;4991666;28;20022;-78
2022/03/16 00:36:30;;;;;;;16.40;9.40;;;7.90;99.90;;;;;;4991758;28;20022;-78
2022/03/16 00:38:55;;;;;;;14.97;8.67;;;7.90;99.90;;;;;;4990095;28;20475;-78
2022/03/16 00:41:21;;;;;;;17.30;8.30;;;8.00;99.90;;;;;;4991356;28;20101;-77
2022/03/16 00:43:46;;;;;;;14.47;8.70;;;8.00;99.90;;;;;;4991791;28;20064;-78
2022/03/16 00:46:12;;;;;;;17.07;8.73;;;8.00;99.90;;;;;;4991540;28;20031;-78
2022/03/16 00:48:38;;;;;;;17.80;9.03;;;8.00;99.90;;;;;;4991452;28;20030;-78
2022/03/16 00:51:04;;;;;;;17.03;8.77;;;8.00;99.90;;;;;;4991458;28;20023;-78
2022/03/16 00:53:34;;;;;;;22.60;9.60;;;7.90;99.90;;;;;;4991367;28;20037;-78
2022/03/16 00:56:01;;;;;;;15.50;9.53;;;7.90;99.90;;;;;;4991286;28;20029;-78
2022/03/16 00:58:26;;;;;;;19.23;9.17;;;7.90;99.90;;;;;;4991518;28;20049;-79
2022/03/16 01:00:52;;;;;;;18.03;9.40;;;7.90;99.90;;;;;;4989840;28;20479;-78
2022/03/16 01:03:18;;;;;;;16.80;9.60;;;7.80;99.90;;;;;;4991448;28;20113;-78
2022/03/16 01:05:45;;;;;;;14.70;8.80;;;7.90;99.90;;;;;;4991512;28;20605;-78
2022/03/16 01:08:10;;;;;;;20.57;10.77;;;7.90;99.90;;;;;;4994957;28;20105;-78
2022/03/16 01:10:37;;;;;;;17.97;10.70;;;8.00;99.90;;;;;;4993915;28;20411;-78
2022/03/16 01:13:03;;;;;;;20.40;12.30;;;7.90;99.90;;;;;;4994657;28;20033;-78
2022/03/16 01:15:29;;;;;;;19.23;12.20;;;7.80;99.90;;;;;;4976886;28;20113;-78
2022/03/16 01:17:54;;;;;;;19.57;12.13;;;7.90;99.90;;;;;;4977429;28;20034;-78
2022/03/16 01:20:20;;;;;;;15.63;12.30;;;7.90;99.90;;;;;;4977267;28;20026;-78
2022/03/16 01:22:46;;;;;;;17.70;12.97;;;8.00;99.90;;;;;;4977164;28;20788;-78
2022/03/16 01:25:11;;;;;;;22.93;15.07;;;7.90;99.90;;;;;;4994758;28;20054;-78
2022/03/16 01:27:37;;;;;;;21.20;13.93;;;7.80;99.90;;;;;;4994464;28;20038;-78
2022/03/16 01:30:04;;;;;;;23.13;14.73;;;7.80;99.90;;;;;;4994618;28;20102;-78
2022/03/16 01:32:29;;;;;;;21.40;14.97;;;7.80;99.90;;;;;;4994661;28;20085;-78
2022/03/16 01:34:55;;;;;;;21.70;16.43;;;7.80;99.90;;;;;;4992971;28;20026;-79
2022/03/16 01:37:20;;;;;;;23.37;16.13;;;7.70;99.90;;;;;;4976754;28;20026;-78
2022/03/16 01:39:46;;;;;;;22.57;16.43;;;7.70;99.90;;;;;;4993203;28;20160;-78
2022/03/16 01:42:12;;;;;;;21.73;16.30;;;7.70;99.90;;;;;;4994112;28;20034;-79
2022/03/16 01:44:48;;;;;;;27.60;16.20;;;7.70;99.90;;;;;;4994124;28;20065;-78
2022/03/16 01:47:16;;;;;;;26.73;17.33;;;7.80;99.90;;;;;;4992985;28;20496;-78
2022/03/16 01:49:42;;;;;;;22.97;16.87;;;7.80;99.90;;;;;;4993930;28;20073;-78
2022/03/16 01:52:08;;;;;;;23.90;16.17;;;7.80;99.90;;;;;;4976475;28;20499;-78
2022/03/16 01:54:35;;;;;;;22.60;17.67;;;8.00;99.90;;;;;;4976452;28;20046;-78
2022/03/16 01:57:01;;;;;;;22.97;18.13;;;8.00;99.90;;;;;;4993894;28;20019;-78
2022/03/16 01:59:26;;;;;;;27.93;17.20;;;8.00;99.90;;;;;;4992638;28;20075;-78
2022/03/16 02:01:52;;;;;;;26.00;18.83;;;7.90;99.90;;;;;;4993624;28;20053;-78
2022/03/16 02:04:17;;;;;;;23.90;17.67;;;7.90;99.90;;;;;;4976264;28;20328;-78
2022/03/16 02:06:43;;;;;;;23.40;18.03;;;7.90;99.90;;;;;;4993806;28;20048;-78
2022/03/16 02:09:09;;;;;;;25.53;17.93;;;7.90;99.90;;;;;;4993479;28;20047;-78
2022/03/16 02:11:34;;;;;;;23.40;18.07;;;8.00;99.90;;;;;;4993846;28;20030;-78
2022/03/16 02:14:01;;;;;;;22.37;18.10;;;8.00;99.90;;;;;;4991920;28;20387;-78
2022/03/16 02:16:27;;;;;;;27.63;19.73;;;8.00;99.90;;;;;;4974100;28;20327;-78
2022/03/16 02:18:52;;;;;;;24.50;18.73;;;8.00;99.90;;;;;;4973651;28;20069;-78
2022/03/16 02:21:19;;;;;;;23.40;18.67;;;8.00;99.90;;;;;;4968187;28;20038;-78
2022/03/16 02:23:44;;;;;;;22.37;17.80;;;8.10;99.90;;;;;;4993594;28;20077;-78
2022/03/16 02:26:12;;;;;;;26.17;19.03;;;8.10;99.90;;;;;;4993150;28;20034;-76
2022/03/16 02:28:38;;;;;;;23.90;17.83;;;8.10;99.90;;;;;;4993344;28;20041;-76
2022/03/16 02:31:05;;;;;;;27.90;20.30;;;8.10;99.90;;;;;;4992968;28;20101;-77
2022/03/16 02:33:30;;;;;;;23.40;18.37;;;8.20;99.90;;;;;;4992007;28;20026;-77
2022/03/16 02:35:56;;;;;;;27.00;19.37;;;8.30;99.90;;;;;;4993223;28;20086;-78
2022/03/16 02:38:22;;;;;;;23.03;19.03;;;8.20;99.90;;;;;;4993438;28;20399;-78
2022/03/16 02:40:48;;;;;;;25.10;19.87;;;8.20;99.90;;;;;;4992407;28;20026;-78
2022/03/16 02:43:14;;;;;;;25.43;19.03;;;8.40;99.90;;;;;;4992391;28;20750;-78
2022/03/16 02:45:39;;;;;;;25.67;19.77;;;8.30;99.90;;;;;;4992945;28;20038;-76
2022/03/16 02:48:05;;;;;;;26.57;19.03;;;8.30;99.90;;;;;;4993163;28;20030;-77
2022/03/16 02:50:31;;;;;;;24.03;19.87;;;8.30;99.90;;;;;;4975595;28;20113;-77
2022/03/16 02:52:57;;;;;;;25.63;19.23;;;8.30;99.90;;;;;;4993401;28;20121;-78
2022/03/16 02:55:23;;;;;;;30.60;19.93;;;8.40;99.90;;;;;;4993097;28;20036;-77
2022/03/16 02:57:48;;;;;;;28.70;21.13;;;8.30;99.90;;;;;;4975684;28;20027;-78
2022/03/16 03:00:14;;;;;;;28.20;23.03;;;8.30;99.90;;;;;;4993023;28;20023;-77
2022/03/16 03:02:41;;;;;;;29.83;22.60;;;8.30;99.90;;;;;;4992765;28;20117;-77
2022/03/16 03:05:07;;;;;;;34.90;24.27;;;8.20;99.90;;;;;;4993180;28;20026;-77
2022/03/16 03:07:33;;;;;;;30.00;23.57;;;8.20;99.90;;;;;;4992731;28;20065;-78
2022/03/16 03:09:59;;;;;;;35.97;24.47;;;8.10;99.90;;;;;;4975272;28;20065;-78
2022/03/16 03:12:24;;;;;;;33.37;24.17;;;8.00;99.90;;;;;;4992774;28;20098;-78
2022/03/16 03:14:50;;;;;;;32.87;24.73;;;8.00;99.90;;;;;;4992903;28;20053;-77
2022/03/16 03:17:15;;;;;;;33.93;24.00;;;8.10;99.90;;;;;;4993014;28;20471;-78
2022/03/16 03:19:43;;;;;;;34.33;25.60;;;7.90;99.90;;;;;;4991448;28;20041;-78
2022/03/16 03:22:09;;;;;;;36.77;25.27;;;7.90;99.90;;;;;;4975261;28;20038;-77
2022/03/16 03:24:35;;;;;;;35.93;25.27;;;7.90;99.90;;;;;;4991842;28;20432;-78
2022/03/16 03:27:01;;;;;;;36.30;25.07;;;8.00;99.90;;;;;;4991393;28;20565;-78
2022/03/16 03:29:27;;;;;;;35.03;25.63;;;8.00;99.90;;;;;;4991843;28;20030;-78
2022/03/16 03:31:52;;;;;;;35.80;25.03;;;8.00;99.90;;;;;;4992201;28;20137;-77
2022/03/16 03:34:18;;;;;;;44.03;27.37;;;7.90;99.90;;;;;;4992266;28;20049;-78
2022/03/16 03:36:44;;;;;;;39.60;26.93;;;7.90;99.90;;;;;;4992508;28;20034;-77
2022/03/16 03:39:10;;;;;;;42.43;27.53;;;8.00;99.90;;;;;;4975067;28;20129;-78
2022/03/16 03:41:36;;;;;;;45.10;27.13;;;7.80;99.90;;;;;;4990840;28;20034;-78
2022/03/16 03:44:01;;;;;;;39.37;28.00;;;7.80;99.90;;;;;;4992321;28;20113;-78
2022/03/16 03:46:27;;;;;;;36.70;26.97;;;7.80;99.90;;;;;;4992411;28;20369;-77
2022/03/16 03:48:53;;;;;;;41.60;27.03;;;7.80;99.90;;;;;;4974610;28;20046;-78
2022/03/16 03:51:18;;;;;;;35.77;26.83;;;7.70;99.90;;;;;;4990933;28;20026;-78
2022/03/16 03:53:44;;;;;;;35.43;26.37;;;7.60;99.90;;;;;;4992241;28;20022;-78
2022/03/16 03:56:09;;;;;;;36.73;26.47;;;7.60;99.90;;;;;;4992228;28;20030;-78
2022/03/16 03:58:35;;;;;;;41.90;28.20;;;7.70;99.90;;;;;;4992319;28;20049;-78
2022/03/16 04:01:01;;;;;;;36.43;27.20;;;7.70;99.90;;;;;;4992407;28;20457;-78
2022/03/16 04:03:27;;;;;;;35.13;26.90;;;7.60;99.90;;;;;;4992272;28;20026;-77
2022/03/16 04:05:52;;;;;;;31.00;23.83;;;7.70;99.90;;;;;;4992477;28;20431;-77
2022/03/16 04:08:18;;;;;;;28.43;22.20;;;7.70;99.90;;;;;;4992131;28;20046;-77
2022/03/16 04:10:43;;;;;;;28.00;21.97;;;7.80;99.90;;;;;;4992229;28;20026;-78
2022/03/16 04:13:09;;;;;;;29.20;22.27;;;7.70;99.90;;;;;;4992056;28;20054;-77
2022/03/16 04:15:34;;;;;;;26.40;21.23;;;7.70;99.90;;;;;;4991028;28;20380;-77
2022/03/16 04:18:00;;;;;;;27.57;22.53;;;7.60;99.90;;;;;;4992326;28;20022;-78
2022/03/16 04:20:26;;;;;;;27.20;21.67;;;7.60;99.90;;;;;;4992096;28;20046;-78
2022/03/16 04:22:52;;;;;;;29.37;22.90;;;7.50;99.90;;;;;;4990896;28;20026;-78
2022/03/16 04:25:17;;;;;;;28.50;22.33;;;7.50;99.90;;;;;;4992355;28;20038;-78
2022/03/16 04:27:43;;;;;;;30.03;22.97;;;7.40;99.90;;;;;;4992053;28;20113;-78
2022/03/16 04:30:09;;;;;;;28.57;23.33;;;7.40;99.90;;;;;;4992485;28;20061;-78
2022/03/16 04:32:35;;;;;;;32.30;25.73;;;7.40;99.90;;;;;;4992405;28;20018;-78
2022/03/16 04:35:00;;;;;;;32.83;25.37;;;7.20;99.90;;;;;;4992380;28;20156;-78
2022/03/16 04:37:26;;;;;;;34.27;26.57;;;7.20;99.90;;;;;;4975079;28;20158;-78
2022/03/16 04:39:51;;;;;;;34.23;26.37;;;7.20;99.90;;;;;;4992401;28;20030;-78
2022/03/16 04:42:17;;;;;;;38.20;28.13;;;7.00;99.90;;;;;;4993344;28;20522;-78
2022/03/16 04:44:43;;;;;;;34.73;27.10;;;7.00;99.90;;;;;;4996568;28;20026;-78
2022/03/16 04:47:08;;;;;;;36.23;26.23;;;7.00;99.90;;;;;;4995978;28;20022;-78
2022/03/16 04:49:34;;;;;;;35.57;26.77;;;6.90;99.90;;;;;;4995896;28;20030;-78
2022/03/16 04:51:59;;;;;;;33.67;25.67;;;6.80;99.90;;;;;;4995973;28;20022;-76
2022/03/16 04:54:25;;;;;;;33.40;25.30;;;6.70;99.90;;;;;;4995692;28;20281;-76
2022/03/16 04:56:50;;;;;;;33.87;25.77;;;6.70;99.90;;;;;;4978373;28;20034;-77
2022/03/16 04:59:17;;;;;;;31.53;25.07;;;6.70;99.90;;;;;;4995859;28;20040;-78
2022/03/16 05:01:43;;;;;;;32.57;25.30;;;6.60;99.90;;;;;;4994480;28;20026;-78
2022/03/16 05:04:08;;;;;;;33.53;24.97;;;6.40;99.90;;;;;;4991546;28;20113;-78
2022/03/16 05:06:34;;;;;;;34.50;25.60;;;6.40;99.90;;;;;;4993328;28;20034;-78
2022/03/16 05:08:59;;;;;;;34.63;25.80;;;6.30;99.90;;;;;;4993117;28;20045;-78
2022/03/16 05:11:25;;;;;;;33.73;25.43;;;6.30;99.90;;;;;;4990043;28;20027;-78
2022/03/16 05:13:51;;;;;;;35.63;25.73;;;6.20;99.90;;;;;;4992434;28;20054;-77
2022/03/16 05:16:16;;;;;;;33.97;25.33;;;6.20;99.90;;;;;;4992718;28;20050;-77
2022/03/16 05:18:44;;;;;;;35.03;24.83;;;6.20;99.90;;;;;;4992811;28;20031;-77
2022/03/16 05:21:10;;;;;;;31.37;23.67;;;6.10;99.90;;;;;;4991091;28;20042;-77
2022/03/16 05:23:36;;;;;;;34.10;25.50;;;6.10;99.90;;;;;;4992655;28;20034;-77
2022/03/16 05:26:03;;;;;;;33.57;25.00;;;6.20;99.90;;;;;;4993161;28;20475;-78
2022/03/16 05:28:29;;;;;;;31.23;24.17;;;6.10;99.90;;;;;;4993168;28;20114;-77
2022/03/16 05:30:54;;;;;;;31.90;24.40;;;6.00;99.90;;;;;;4991406;28;20030;-76
2022/03/16 05:33:21;;;;;;;30.77;24.93;;;6.00;99.90;;;;;;4989623;28;20035;-76
2022/03/16 05:35:47;;;;;;;32.23;24.30;;;5.90;99.90;;;;;;4991148;28;20283;-77
2022/03/16 05:38:12;;;;;;;31.73;24.27;;;5.90;99.90;;;;;;4975035;28;20109;-77
2022/03/16 05:40:39;;;;;;;30.20;22.63;;;5.80;99.90;;;;;;4978050;28;20018;-76
2022/03/16 05:43:05;;;;;;;29.53;22.90;;;5.80;99.90;;;;;;4983993;28;20023;-76
2022/03/16 05:45:31;;;;;;;31.40;23.97;;;6.00;99.90;;;;;;4991643;28;20029;-76
2022/03/16 05:47:57;;;;;;;27.80;22.07;;;6.00;99.90;;;;;;4994580;28;20468;-76
2022/03/16 05:50:24;;;;;;;30.17;22.37;;;6.00;99.90;;;;;;4994239;28;20034;-76
2022/03/16 05:52:50;;;;;;;29.63;23.30;;;6.20;99.90;;;;;;4984280;28;20033;-76
2022/03/16 05:55:16;;;;;;;28.73;22.53;;;6.10;99.90;;;;;;4989395;28;20026;-77
2022/03/16 05:57:44;;;;;;;29.13;22.17;;;6.10;99.90;;;;;;4978557;28;20034;-77
2022/03/16 06:00:14;;;;;;;32.47;25.27;;;6.10;99.90;;;;;;4989682;28;20022;-77
2022/03/16 06:02:49;;;;;;;31.47;23.43;;;6.00;99.90;;;;;;4973358;28;20338;-77
2022/03/16 06:05:16;;;;;;;30.65;24.08;;;6.10;99.90;;;;;;4983701;28;20084;-77
2022/03/16 06:07:43;;;;;;;32.47;22.83;;;6.00;99.90;;;;;;4989388;28;20046;-77
2022/03/16 06:10:10;;;;;;;30.03;23.07;;;5.90;99.90;;;;;;4992236;28;20118;-78
2022/03/16 06:13:00;;;;;;;28.87;22.97;;;5.80;99.90;;;;;;4975980;28;20360;-78
2022/03/16 06:15:27;;;;;;;34.37;24.57;;;5.90;99.90;;;;;;4986895;28;20030;-78
2022/03/16 06:17:58;;;;;;;30.30;22.40;;;5.80;99.90;;;;;;4992709;28;20060;-79
2022/03/16 06:20:25;;;;;;;31.07;23.33;;;6.00;99.90;;;;;;4964574;28;20372;-81
2022/03/16 06:22:51;;;;;;;30.63;24.10;;;5.90;99.90;;;;;;4994449;28;20109;-74
2022/03/16 06:25:17;;;;;;;31.87;24.23;;;5.90;99.90;;;;;;4993067;28;20105;-81
2022/03/16 06:27:42;;;;;;;32.10;24.57;;;6.00;99.90;;;;;;4992837;28;20026;-81
2022/03/16 06:30:09;;;;;;;30.47;23.77;;;6.00;99.90;;;;;;4991890;28;20030;-81
2022/03/16 06:32:35;;;;;;;31.33;24.20;;;6.00;99.90;;;;;;4988999;28;20027;-81
2022/03/16 06:35:01;;;;;;;34.30;23.47;;;6.00;99.90;;;;;;4989425;28;20037;-80
2022/03/16 06:37:27;;;;;;;33.57;24.17;;;6.00;99.90;;;;;;4989993;28;20471;-80
2022/03/16 06:39:56;;;;;;;32.67;23.37;;;5.90;99.90;;;;;;4989598;28;20054;-80
2022/03/16 06:42:22;;;;;;;32.30;25.13;;;5.90;99.90;;;;;;4987856;28;20033;-80
2022/03/16 06:44:49;;;;;;;29.70;23.50;;;5.90;99.90;;;;;;4990517;28;20495;-69
2022/03/16 06:47:14;;;;;;;31.33;24.50;;;6.00;99.90;;;;;;4990134;28;20125;-79
2022/03/16 06:49:40;;;;;;;34.57;26.60;;;6.10;99.90;;;;;;4989431;28;20041;-80
2022/03/16 06:52:06;;;;;;;57.57;36.27;;;6.10;99.90;;;;;;4988230;28;20026;-80
2022/03/16 06:54:31;;;;;;;41.20;30.00;;;6.10;99.90;;;;;;4991679;28;20034;-78
2022/03/16 06:56:57;;;;;;;74.40;48.47;;;6.00;99.90;;;;;;4993713;28;20062;-78
2022/03/16 06:59:22;;;;;;;51.53;34.17;;;5.90;99.90;;;;;;4970124;28;20110;-78
2022/03/16 07:01:48;;;;;;;75.37;49.37;;;5.90;99.90;;;;;;4986632;28;20530;-78
2022/03/16 07:04:14;;;;;;;41.33;29.70;;;6.00;99.90;;;;;;4990078;28;20030;-78
2022/03/16 07:06:39;;;;;;;37.60;28.43;;;6.00;99.90;;;;;;4993791;28;20061;-78
2022/03/16 07:09:05;;;;;;;33.80;24.83;;;6.10;99.90;;;;;;4993741;28;20074;-77
2022/03/16 07:11:30;;;;;;;31.30;23.40;;;6.10;99.90;;;;;;4985375;28;20089;-77
2022/03/16 07:16:41;;;;;;;33.80;25.03;;;6.20;99.90;;;;;;4993985;28;20486;-77
2022/03/16 07:19:07;;;;;;;39.00;27.10;;;6.10;99.90;;;;;;4993487;28;20053;-77
2022/03/16 07:21:33;;;;;;;37.00;27.30;;;6.10;99.90;;;;;;4994209;28;20061;-77
2022/03/16 07:23:58;;;;;;;39.43;29.27;;;6.20;99.90;;;;;;4993799;28;20030;-77
2022/03/16 07:26:24;;;;;;;32.87;24.40;;;6.10;99.90;;;;;;4993984;28;20034;-77
2022/03/16 07:28:51;;;;;;;34.73;25.77;;;6.10;99.90;;;;;;4993623;28;20042;-77
2022/03/16 07:31:17;;;;;;;34.53;26.00;;;6.10;99.90;;;;;;4993639;28;20017;-77
2022/03/16 07:33:42;;;;;;;31.27;24.57;;;6.20;99.90;;;;;;4993425;28;20026;-77
2022/03/16 07:36:08;;;;;;;35.53;25.70;;;6.30;99.90;;;;;;4992596;28;20049;-77
2022/03/16 07:38:34;;;;;;;36.67;25.40;;;6.10;99.90;;;;;;4991845;28;20034;-77
2022/03/16 07:41:02;;;;;;;34.93;26.17;;;6.20;99.90;;;;;;4975491;28;20026;-77
2022/03/16 07:43:31;;;;;;;39.63;27.57;;;6.20;99.90;;;;;;4975754;28;20399;-76
2022/03/16 07:45:58;;;;;;;36.20;27.93;;;6.30;99.90;;;;;;4990628;28;20030;-77
2022/03/16 07:48:23;;;;;;;37.70;28.47;;;6.40;99.90;;;;;;4992290;28;20505;-77
2022/03/16 07:50:50;;;;;;;36.17;27.67;;;6.30;99.90;;;;;;4992955;28;20018;-77
2022/03/16 07:53:16;;;;;;;40.00;27.43;;;6.30;99.90;;;;;;4990649;28;20092;-79
2022/03/16 07:55:41;;;;;;;38.00;28.27;;;6.40;99.90;;;;;;4992799;28;20023;-79
2022/03/16 07:58:07;;;;;;;37.70;27.73;;;6.30;99.90;;;;;;4992692;28;20026;-79
2022/03/16 08:00:33;;;;;;;37.87;27.67;;;6.30;99.90;;;;;;4993052;28;20030;-79
2022/03/16 08:03:01;;;;;;;36.43;27.27;;;6.40;99.90;;;;;;4992732;28;20023;-79
2022/03/16 08:05:28;;;;;;;39.90;28.90;;;6.30;99.90;;;;;;4992691;28;20099;-80
2022/03/16 08:07:54;;;;;;;39.87;28.50;;;6.30;99.90;;;;;;4985813;28;20046;-85
2022/03/16 08:10:20;;;;;;;38.50;28.03;;;6.20;99.90;;;;;;4987494;28;20117;-82
2022/03/16 08:12:46;;;;;;;35.60;25.60;;;6.20;99.90;;;;;;4990792;28;20037;-80
2022/03/16 08:15:12;;;;;;;40.13;28.60;;;6.40;99.90;;;;;;4986988;28;20042;-80
2022/03/16 08:17:38;;;;;;;36.87;25.73;;;6.40;99.90;;;;;;4992485;28;20450;-80
2022/03/16 08:20:04;;;;;;;40.97;29.47;;;6.60;99.90;;;;;;4993048;28;20056;-80
2022/03/16 08:22:35;;;;;;;38.50;28.30;;;6.50;99.90;;;;;;4992211;28;20066;-80
2022/03/16 08:25:03;;;;;;;34.43;26.77;;;6.50;99.90;;;;;;4992676;28;20656;-80
2022/03/16 08:27:29;;;;;;;32.30;24.90;;;6.70;99.90;;;;;;4993343;28;20539;-80
2022/03/16 08:29:55;;;;;;;34.33;25.03;;;6.80;99.90;;;;;;4992858;28;20109;-80
2022/03/16 08:32:21;;;;;;;35.30;26.53;;;6.80;99.90;;;;;;4993182;28;20066;-80
2022/03/16 08:34:47;;;;;;;32.57;25.17;;;6.80;99.90;;;;;;4992929;28;20030;-80
2022/03/16 08:37:13;;;;;;;31.43;24.30;;;6.80;99.90;;;;;;4993073;28;20086;-80
2022/03/16 08:39:40;;;;;;;32.70;24.20;;;6.80;99.90;;;;;;4985847;28;20034;-80
2022/03/16 08:42:07;;;;;;;33.50;25.70;;;6.80;99.90;;;;;;4984586;28;20042;-80
2022/03/16 08:44:33;;;;;;;34.47;25.70;;;6.80;99.90;;;;;;4971700;28;20533;-79
2022/03/16 08:46:59;;;;;;;31.17;24.53;;;6.80;99.90;;;;;;4984965;28;20038;-80
2022/03/16 08:49:25;;;;;;;34.37;26.30;;;6.80;99.90;;;;;;4987694;28;20058;-79
2022/03/16 08:51:51;;;;;;;33.33;25.40;;;6.80;99.90;;;;;;4983926;28;20475;-79
2022/03/16 08:54:17;;;;;;;31.77;24.47;;;6.80;99.90;;;;;;4987265;28;20029;-79
2022/03/16 08:56:45;;;;;;;32.30;24.90;;;6.80;99.90;;;;;;4976238;28;20468;-79
2022/03/16 08:59:11;;;;;;;32.60;26.07;;;7.10;99.90;;;;;;4982887;28;20124;-79
2022/03/16 09:01:37;;;;;;;41.80;28.77;;;7.10;99.90;;;;;;4987514;28;20217;-79
2022/03/16 09:04:03;;;;;;;37.50;27.93;;;7.10;99.90;;;;;;4984619;28;20046;-79
2022/03/16 09:06:29;;;;;;;35.50;27.07;;;7.00;99.90;;;;;;4981660;28;20050;-79
2022/03/16 09:08:55;;;;;;;34.17;26.83;;;7.10;99.90;;;;;;4984829;28;20873;-79
2022/03/16 09:11:20;;;;;;;39.67;29.57;;;7.20;99.90;;;;;;4988852;28;20191;-79
2022/03/16 09:13:47;;;;;;;38.53;28.17;;;7.10;99.90;;;;;;4984799;28;20046;-80
2022/03/16 09:16:14;;;;;;;37.90;27.97;;;7.20;99.90;;;;;;4983728;28;20034;-79
2022/03/16 09:18:40;;;;;;;35.60;26.83;;;7.20;99.90;;;;;;4984394;28;20030;-79
2022/03/16 09:21:06;;;;;;;61.47;37.00;;;7.10;99.90;;;;;;4984127;28;20141;-79
2022/03/16 09:23:32;;;;;;;44.27;29.70;;;7.00;99.90;;;;;;4983473;28;20049;-79
2022/03/16 09:26:00;;;;;;;42.17;31.20;;;7.00;99.90;;;;;;4984023;28;20042;-79
2022/03/16 09:28:27;;;;;;;48.37;30.13;;;7.00;99.90;;;;;;4979913;28;20038;-79
2022/03/16 09:30:52;;;;;;;42.80;28.63;;;7.00;99.90;;;;;;4982848;28;20026;-79
2022/03/16 09:33:18;;;;;;;41.77;28.27;;;7.00;99.90;;;;;;4981480;28;20057;-79
2022/03/16 09:35:44;;;;;;;98.40;45.57;;;7.20;99.90;;;;;;4980562;28;20114;-79
2022/03/16 09:38:11;;;;;;;62.77;36.73;;;7.20;99.90;;;;;;4980765;28;20089;-79
2022/03/16 09:40:36;;;;;;;37.27;30.43;;;7.30;99.90;;;;;;4980194;28;20035;-79
2022/03/16 09:43:07;;;;;;;34.97;28.17;;;7.50;99.90;;;;;;4981033;28;20411;-79
2022/03/16 09:45:47;;;;;;;34.13;27.33;;;7.60;99.90;;;;;;4977520;28;20084;-79
2022/03/16 09:48:13;;;;;;;31.23;23.93;;;7.50;99.90;;;;;;4978063;28;20033;-79
2022/03/16 09:50:42;;;;;;;32.60;25.60;;;7.70;99.90;;;;;;4979201;28;20466;-79
2022/03/16 09:53:11;;;;;;;32.00;25.00;;;7.60;99.90;;;;;;4978418;28;20365;-79
2022/03/16 09:55:37;;;;;;;32.97;25.13;;;7.70;99.90;;;;;;4967462;28;20030;-79
2022/03/16 09:58:04;;;;;;;35.07;26.40;;;7.60;99.90;;;;;;4982331;28;20395;-79
2022/03/16 10:00:30;;;;;;;29.93;24.67;;;7.70;99.90;;;;;;4985992;28;20089;-79
2022/03/16 10:03:02;;;;;;;34.37;25.80;;;7.70;99.90;;;;;;4982803;28;20030;-80
2022/03/16 10:05:29;;;;;;;29.00;23.90;;;7.60;99.90;;;;;;4981453;28;20078;-79
2022/03/16 10:07:55;;;;;;;31.43;23.40;;;7.50;99.90;;;;;;4985822;28;20047;-74
2022/03/16 10:13:23;;;;;;;33.40;24.20;;;7.60;99.90;;;;;;4993615;28;20077;-73
2022/03/16 10:15:53;;;;;;;28.97;22.03;;;7.70;99.90;;;;;;4992525;28;20022;-73
2022/03/16 10:18:23;;;;;;;32.10;22.87;;;7.70;99.90;;;;;;4989566;28;20033;-74
2022/03/16 10:20:51;;;;;;;30.07;21.33;;;7.80;99.90;;;;;;4994138;28;20026;-73
2022/03/16 10:23:20;;;;;;;25.80;21.47;;;7.80;99.90;;;;;;4993102;28;20096;-72
2022/03/16 10:25:58;;;;;;;29.20;22.00;;;7.90;99.90;;;;;;4989192;28;20027;-73
2022/03/16 10:28:29;;;;;;;26.80;21.43;;;7.80;99.90;;;;;;4988696;28;20035;-73
2022/03/16 10:31:05;;;;;;;29.23;20.53;;;8.00;99.90;;;;;;4993581;28;20030;-73
2022/03/16 10:33:33;;;;;;;26.20;20.43;;;8.00;99.90;;;;;;4989195;28;20033;-74
2022/03/16 10:36:09;;;;;;;28.50;22.13;;;8.20;99.90;;;;;;4992801;28;20390;-74
2022/03/16 10:38:37;;;;;;;28.63;20.53;;;8.10;99.90;;;;;;4981878;28;20034;-73
2022/03/16 10:41:14;;;;;;;31.23;21.33;;;8.00;99.90;;;;;;4990881;28;20045;-73
2022/03/16 10:46:35;;;;;;;23.87;19.17;;;7.90;99.90;;;;;;4992222;28;20437;-73
2022/03/16 10:49:09;;;;;;;26.73;19.97;;;8.00;99.90;;;;;;4982378;28;20030;-73
2022/03/16 10:51:36;;;;;;;24.10;18.97;;;8.20;99.90;;;;;;4994909;28;20033;-73
2022/03/16 10:54:03;;;;;;;24.03;19.13;;;8.20;99.90;;;;;;4994492;28;20018;-73
2022/03/16 10:56:30;;;;;;;23.53;19.27;;;8.20;99.90;;;;;;4994669;28;20088;-73
2022/03/16 10:58:57;;;;;;;22.43;18.27;;;8.20;99.90;;;;;;4994640;28;20033;-73
2022/03/16 11:01:25;;;;;;;24.10;19.17;;;8.40;99.90;;;;;;4994487;28;20112;-73
2022/03/16 11:03:52;;;;;;;21.93;17.57;;;8.70;99.90;;;;;;4994380;28;20030;-73
2022/03/16 11:06:23;;;;;;;25.63;18.87;;;8.70;99.90;;;;;;4993146;28;20038;-73
2022/03/16 11:08:50;;;;;;;22.53;18.47;;;8.70;99.90;;;;;;4974906;28;20118;-73
2022/03/16 11:14:03;;;;;;;26.77;19.92;;;8.80;99.90;;;;;;4988474;28;20042;-79
2022/03/16 11:16:32;;;;;;;23.17;18.80;;;8.80;99.90;;;;;;4985680;28;20019;-79
2022/03/16 11:19:01;;;;;;;20.80;17.27;;;8.90;99.90;;;;;;4987474;28;20121;-72
2022/03/16 11:21:45;;;;;;;20.63;16.80;;;8.80;99.90;;;;;;4992264;28;20033;-73
2022/03/16 11:24:17;;;;;;;25.70;18.47;;;9.20;99.90;;;;;;4993504;28;20321;-73
2022/03/16 11:27:09;;;;;;;22.40;18.07;;;9.40;99.90;;;;;;4993991;28;20097;-74
2022/03/16 11:29:44;;;;;;;20.93;16.67;;;9.90;99.90;;;;;;4974486;28;20475;-74
2022/03/16 11:32:12;;;;;;;19.20;15.38;;;10.10;99.90;;;;;;4973150;28;20436;-74
2022/03/16 11:34:38;;;;;;;27.90;20.77;;;10.30;99.90;;;;;;4956872;28;20035;-74
2022/03/16 11:37:09;;;;;;;28.87;21.93;;;10.40;99.90;;;;;;4984389;28;20033;-74
2022/03/16 11:39:46;;;;;;;20.03;15.23;;;10.80;99.90;;;;;;4993812;28;20383;-74
2022/03/16 11:42:17;;;;;;;32.53;23.93;;;10.90;99.90;;;;;;4993965;28;20034;-72
2022/03/16 11:44:43;;;;;;;18.25;14.88;;;11.10;99.90;;;;;;4988117;28;20030;-73
2022/03/16 11:47:11;;;;;;;25.67;18.37;;;11.10;99.90;;;;;;4987547;28;20026;-78
2022/03/16 11:49:45;;;;;;;31.40;22.55;;;11.40;99.90;;;;;;4980745;28;20030;-78
2022/03/16 11:52:11;;;;;;;18.33;15.27;;;11.40;99.90;;;;;;4979962;28;20367;-78
2022/03/16 11:54:45;;;;;;;18.05;14.38;;;11.60;99.90;;;;;;4980468;28;20027;-78
2022/03/16 11:57:12;;;;;;;26.25;19.25;;;11.60;99.90;;;;;;4983886;28;20046;-78
2022/03/16 11:59:45;;;;;;;26.73;18.70;;;11.60;99.90;;;;;;4971492;28;20039;-78
2022/03/16 12:02:25;;;;;;;19.30;15.85;;;11.50;99.90;;;;;;4986432;28;20038;-78
2022/03/16 12:04:58;;;;;;;19.00;16.15;;;11.40;99.90;;;;;;4982885;28;20022;-78
2022/03/16 12:07:30;;;;;;;19.50;14.75;;;11.20;99.90;;;;;;4983339;28;20045;-78
2022/03/16 12:09:55;;;;;;;19.77;15.27;;;11.10;99.90;;;;;;4984973;28;20031;-78
2022/03/16 12:15:12;;;;;;;27.75;20.17;;;11.30;99.90;;;;;;4989987;28;20430;-73
2022/03/16 12:17:39;;;;;;;24.55;17.90;;;11.50;99.90;;;;;;4991065;28;20030;-72
2022/03/16 12:20:10;;;;;;;24.65;19.35;;;12.00;99.90;;;;;;4991752;28;20678;-72
2022/03/16 12:22:45;;;;;;;18.52;15.13;;;12.00;99.90;;;;;;4990055;28;20038;-73
2022/03/16 12:25:26;;;;;;;20.08;16.17;;;11.90;99.90;;;;;;4988915;28;20038;-73
2022/03/16 12:31:18;;;;;;;28.35;19.35;;;12.30;99.90;;;;;;4984267;28;20084;-73
2022/03/16 12:33:47;;;;;;;18.20;15.15;;;12.20;99.90;;;;;;4990220;28;20432;-73
2022/03/16 12:36:20;;;;;;;20.75;17.52;;;11.90;99.90;;;;;;4990081;28;20018;-73
2022/03/16 12:38:51;;;;;;;18.55;15.18;;;12.20;99.90;;;;;;4990953;28;20805;-73
2022/03/16 12:44:11;;;;;;;16.15;13.77;;;12.30;99.90;;;;;;4987874;28;20097;-73
2022/03/16 12:46:53;;;;;;;17.85;14.15;;;12.70;99.90;;;;;;4988691;28;20141;-73
2022/03/16 12:49:20;;;;;;;14.93;13.30;;;12.70;99.90;;;;;;4977870;28;20039;-73
2022/03/16 12:51:49;;;;;;;16.95;13.68;;;13.00;99.90;;;;;;4985769;28;20033;-74
2022/03/16 12:54:20;;;;;;;14.27;12.77;;;13.20;99.90;;;;;;4988610;28;20026;-74
2022/03/16 12:56:51;;;;;;;14.82;11.43;;;13.40;99.90;;;;;;4990837;28;20070;-73